Time;durP1;ratioP1;P1;durP2;ratioP2;P2;SDS_P1;SDS_P2;PMS_P1;PMS_P2;Temp;Humidity;BMP_temperature;BMP_pressure;BME280_temperature;BME280_humidity;BME280_pressure;Samples;Min_cycle;Max_cycle;Signal;HPM_P1;HPM_P2
2021/01/18 00:00:36;;;;;;;27.50;18.57;;;0.00;99.60;;;;;;6183861;28;20477;-57
2021/01/18 00:03:39;;;;;;;24.50;18.13;;;-0.10;99.70;;;;;;6188623;28;20476;-57
2021/01/18 00:06:42;;;;;;;29.47;19.77;;;-0.20;99.80;;;;;;6177385;28;20480;-57
2021/01/18 00:09:44;;;;;;;25.43;17.00;;;-0.30;99.90;;;;;;6177062;28;20982;-57
2021/01/18 00:12:49;;;;;;;26.43;17.73;;;-0.30;99.90;;;;;;6181987;28;20469;-57
2021/01/18 00:15:51;;;;;;;24.93;16.40;;;-0.30;99.90;;;;;;6178593;28;20477;-57
2021/01/18 00:18:53;;;;;;;24.63;17.50;;;-0.40;99.90;;;;;;6195744;28;20492;-56
2021/01/18 00:21:55;;;;;;;25.33;17.87;;;-0.40;99.90;;;;;;6192395;28;20479;-57
2021/01/18 00:25:00;;;;;;;22.77;15.23;;;-0.40;99.90;;;;;;6181976;28;20781;-57
2021/01/18 00:28:03;;;;;;;20.73;14.83;;;-0.30;99.90;;;;;;6188719;28;20477;-57
2021/01/18 00:31:06;;;;;;;25.20;16.77;;;-0.20;99.80;;;;;;6191302;28;20488;-56
2021/01/18 00:34:08;;;;;;;25.10;15.70;;;-0.20;99.50;;;;;;6200723;28;20535;-58
2021/01/18 00:37:11;;;;;;;23.87;16.00;;;-0.20;99.70;;;;;;6198709;28;20473;-58
2021/01/18 00:40:15;;;;;;;29.40;17.00;;;-0.10;99.90;;;;;;6198636;28;20816;-59
2021/01/18 00:43:18;;;;;;;25.43;17.60;;;0.00;99.90;;;;;;6198820;28;20480;-58
2021/01/18 00:46:20;;;;;;;31.50;18.37;;;0.10;99.80;;;;;;6198760;28;20477;-58
2021/01/18 00:49:23;;;;;;;25.70;16.40;;;0.10;99.90;;;;;;6199086;28;20483;-59
2021/01/18 00:52:25;;;;;;;27.63;16.50;;;0.00;99.80;;;;;;6200446;28;20483;-58
2021/01/18 00:55:28;;;;;;;22.37;16.07;;;0.00;99.80;;;;;;6200571;28;20488;-58
2021/01/18 00:58:31;;;;;;;24.70;16.50;;;0.10;99.40;;;;;;6199845;28;20817;-58
2021/01/18 01:01:34;;;;;;;25.00;18.47;;;0.10;99.00;;;;;;6199891;28;20472;-58
2021/01/18 01:04:38;;;;;;;23.53;15.17;;;0.10;98.90;;;;;;6200460;28;20483;-58
2021/01/18 01:07:42;;;;;;;23.70;15.30;;;0.10;98.80;;;;;;6200858;28;20487;-57
2021/01/18 01:10:44;;;;;;;26.37;16.33;;;0.10;98.70;;;;;;6200490;28;20477;-57
2021/01/18 01:13:48;;;;;;;24.93;18.33;;;0.00;98.70;;;;;;6201436;28;20496;-57
2021/01/18 01:16:51;;;;;;;24.17;16.97;;;-0.10;98.80;;;;;;6201134;28;20488;-58
2021/01/18 01:19:55;;;;;;;31.57;18.63;;;-0.20;98.80;;;;;;6200623;28;21118;-58
2021/01/18 01:22:57;;;;;;;24.37;16.07;;;-0.20;99.00;;;;;;6201165;28;20477;-59
2021/01/18 01:25:59;;;;;;;25.20;16.67;;;-0.30;98.90;;;;;;6201331;28;20476;-59
2021/01/18 01:29:03;;;;;;;21.43;15.00;;;-0.40;99.10;;;;;;6191562;28;20469;-59
2021/01/18 01:32:05;;;;;;;24.77;16.20;;;-0.40;99.20;;;;;;6200469;28;20500;-58
2021/01/18 01:35:10;;;;;;;25.17;15.80;;;-0.40;99.30;;;;;;6200413;28;20469;-59
2021/01/18 01:38:12;;;;;;;22.90;15.73;;;-0.40;99.60;;;;;;6202432;28;20561;-59
2021/01/18 01:41:14;;;;;;;26.37;16.63;;;-0.40;99.40;;;;;;6205052;28;20480;-58
2021/01/18 01:44:17;;;;;;;26.17;17.37;;;-0.40;99.50;;;;;;6204641;28;20468;-58
2021/01/18 01:47:25;;;;;;;22.37;16.40;;;-0.40;99.50;;;;;;6204977;28;20558;-57
2021/01/18 01:50:30;;;;;;;24.80;16.07;;;-0.30;99.50;;;;;;6204989;28;20489;-58
2021/01/18 01:53:36;;;;;;;22.80;15.70;;;-0.30;99.50;;;;;;6205233;28;20481;-58
2021/01/18 01:56:38;;;;;;;19.70;14.53;;;-0.20;99.40;;;;;;6204595;28;20477;-58
2021/01/18 01:59:41;;;;;;;24.53;16.27;;;-0.20;99.30;;;;;;6204700;28;20485;-57
2021/01/18 02:02:44;;;;;;;24.87;16.20;;;-0.20;99.30;;;;;;6204385;28;20794;-57
2021/01/18 02:05:48;;;;;;;24.60;16.53;;;-0.20;99.30;;;;;;6204650;28;20499;-57
2021/01/18 02:08:50;;;;;;;22.40;16.43;;;-0.20;99.20;;;;;;6204498;28;20489;-59
2021/01/18 02:11:52;;;;;;;20.97;15.50;;;-0.10;99.10;;;;;;6204180;28;20473;-57
2021/01/18 02:15:08;;;;;;;24.20;15.90;;;0.00;99.10;;;;;;6204214;28;20488;-58
2021/01/18 02:18:23;;;;;;;32.00;19.00;;;-0.10;99.00;;;;;;6204215;28;20925;-58
2021/01/18 02:22:12;;;;;;;28.17;18.17;;;-0.10;98.80;;;;;;6204216;28;20457;-59
2021/01/18 02:25:27;;;;;;;29.37;20.73;;;0.00;98.70;;;;;;6170329;28;20473;-58
2021/01/18 02:28:44;;;;;;;32.90;18.70;;;0.00;98.70;;;;;;6203778;28;20809;-57
2021/01/18 02:32:18;;;;;;;28.63;19.87;;;-0.10;98.00;;;;;;6199622;28;20484;-58
2021/01/18 02:36:07;;;;;;;33.00;20.67;;;-0.30;98.40;;;;;;6203656;28;20496;-58
2021/01/18 02:39:21;;;;;;;26.37;19.17;;;-0.20;98.70;;;;;;6115612;28;21032;-59
2021/01/18 02:42:27;;;;;;;26.73;18.63;;;-0.10;98.80;;;;;;6203909;28;20468;-57
2021/01/18 02:45:32;;;;;;;26.20;17.37;;;-0.10;98.70;;;;;;6203540;28;20821;-57
2021/01/18 02:48:35;;;;;;;31.47;18.63;;;-0.10;98.60;;;;;;6203330;28;20483;-57
2021/01/18 02:51:43;;;;;;;29.43;19.43;;;-0.10;98.30;;;;;;6203770;28;20568;-57
2021/01/18 02:54:46;;;;;;;30.97;17.93;;;0.00;98.40;;;;;;6203511;28;20473;-59
2021/01/18 02:57:51;;;;;;;27.93;19.13;;;0.10;98.40;;;;;;6203219;28;20798;-57
2021/01/18 03:01:09;;;;;;;28.80;18.50;;;0.10;98.00;;;;;;6203315;28;20965;-57
2021/01/18 03:04:20;;;;;;;31.33;19.47;;;0.00;98.10;;;;;;6203334;28;20620;-57
2021/01/18 03:07:31;;;;;;;34.60;20.80;;;0.00;98.50;;;;;;6202871;28;20488;-57
2021/01/18 03:10:38;;;;;;;33.00;20.03;;;0.00;98.20;;;;;;6202653;28;20469;-57
2021/01/18 03:13:48;;;;;;;29.33;21.07;;;0.00;98.00;;;;;;6202664;28;20600;-57
2021/01/18 03:16:52;;;;;;;34.70;20.93;;;0.00;98.30;;;;;;6202722;28;21016;-57
2021/01/18 03:19:55;;;;;;;29.40;20.27;;;0.10;98.10;;;;;;6202653;28;20488;-57
2021/01/18 03:23:02;;;;;;;33.90;20.30;;;0.00;97.90;;;;;;6202701;28;20487;-57
2021/01/18 03:26:05;;;;;;;31.47;20.40;;;0.00;97.90;;;;;;6194525;28;20950;-57
2021/01/18 03:29:07;;;;;;;29.57;20.83;;;0.00;97.80;;;;;;6178457;28;20492;-57
2021/01/18 03:32:10;;;;;;;34.63;20.87;;;0.00;97.80;;;;;;6178440;28;20478;-57
2021/01/18 03:35:12;;;;;;;28.87;21.03;;;0.00;97.80;;;;;;6178161;28;20624;-57
2021/01/18 03:38:15;;;;;;;28.77;18.93;;;-0.20;98.10;;;;;;6178052;28;20486;-57
2021/01/18 03:41:19;;;;;;;30.63;19.17;;;-0.20;98.10;;;;;;6178031;28;20637;-57
2021/01/18 03:44:21;;;;;;;32.90;20.17;;;-0.30;98.20;;;;;;6178326;28;20466;-57
2021/01/18 03:47:23;;;;;;;32.87;20.17;;;-0.30;98.30;;;;;;6178069;28;20993;-57
2021/01/18 03:50:26;;;;;;;29.57;20.30;;;-0.30;98.70;;;;;;6177863;28;20482;-57
2021/01/18 03:53:29;;;;;;;34.13;21.40;;;-0.30;98.40;;;;;;6177712;28;20478;-57
2021/01/18 03:56:31;;;;;;;27.83;19.23;;;-0.30;98.50;;;;;;6177886;28;20492;-57
2021/01/18 03:59:34;;;;;;;33.67;20.93;;;-0.30;98.30;;;;;;6177451;28;20845;-58
2021/01/18 04:02:37;;;;;;;31.83;20.53;;;-0.40;98.50;;;;;;6177006;28;20849;-57
2021/01/18 04:05:39;;;;;;;33.43;20.17;;;-0.40;99.00;;;;;;6177647;28;20469;-57
2021/01/18 04:08:43;;;;;;;32.57;21.20;;;-0.40;98.90;;;;;;6177401;28;20993;-57
2021/01/18 04:11:45;;;;;;;32.43;21.10;;;-0.40;99.20;;;;;;6177265;28;20978;-57
2021/01/18 04:14:48;;;;;;;32.80;19.87;;;-0.40;98.70;;;;;;6177131;28;20482;-57
2021/01/18 04:17:52;;;;;;;34.10;20.03;;;-0.30;98.90;;;;;;6177145;28;20477;-57
2021/01/18 04:20:54;;;;;;;33.80;22.73;;;-0.50;98.70;;;;;;6177416;28;20553;-57
2021/01/18 04:23:57;;;;;;;30.87;20.40;;;-0.40;98.60;;;;;;6177588;28;20465;-57
2021/01/18 04:27:03;;;;;;;36.50;21.07;;;-0.40;98.60;;;;;;6177172;28;20450;-57
2021/01/18 04:30:06;;;;;;;34.10;22.27;;;-0.40;98.60;;;;;;6176939;28;20472;-57
2021/01/18 04:33:09;;;;;;;36.70;22.80;;;-0.40;98.50;;;;;;6177086;28;20468;-57
2021/01/18 04:36:12;;;;;;;33.50;22.30;;;-0.40;98.70;;;;;;6177104;28;20488;-57
2021/01/18 04:39:15;;;;;;;37.17;20.07;;;-0.40;98.80;;;;;;6167959;28;20470;-57
2021/01/18 04:42:17;;;;;;;31.70;20.60;;;-0.40;99.10;;;;;;6177280;28;20437;-57
2021/01/18 04:45:21;;;;;;;33.73;19.93;;;-0.40;98.90;;;;;;6176782;28;20442;-57
2021/01/18 04:48:24;;;;;;;32.87;20.20;;;-0.50;99.10;;;;;;6176775;28;20463;-57
2021/01/18 04:51:32;;;;;;;35.73;21.20;;;-0.40;99.40;;;;;;6177094;28;20473;-57
2021/01/18 04:54:45;;;;;;;36.07;22.90;;;-0.40;99.20;;;;;;6176586;28;20817;-57
2021/01/18 04:57:58;;;;;;;33.20;21.57;;;-0.40;99.40;;;;;;6176988;28;20582;-58
2021/01/18 05:01:04;;;;;;;30.97;21.20;;;-0.30;99.60;;;;;;6177024;28;20474;-57
2021/01/18 05:04:21;;;;;;;32.77;20.77;;;-0.20;99.50;;;;;;6176652;28;20918;-57
2021/01/18 05:08:05;;;;;;;35.73;22.87;;;-0.30;99.50;;;;;;6176538;28;20790;-57
2021/01/18 05:11:13;;;;;;;42.00;23.53;;;-0.30;99.20;;;;;;6176546;28;20488;-56
2021/01/18 05:14:16;;;;;;;33.10;21.60;;;-0.30;99.40;;;;;;6181332;28;20529;-56
2021/01/18 05:17:39;;;;;;;38.13;21.30;;;-0.30;99.40;;;;;;6181733;28;20481;-57
2021/01/18 05:20:42;;;;;;;35.33;23.23;;;-0.20;99.40;;;;;;6189298;28;20782;-57
2021/01/18 05:23:45;;;;;;;37.00;23.03;;;-0.30;99.40;;;;;;6181252;28;20825;-57
2021/01/18 05:27:08;;;;;;;36.30;22.67;;;-0.20;99.30;;;;;;6181324;28;20560;-57
2021/01/18 05:30:17;;;;;;;33.20;23.73;;;-0.30;99.20;;;;;;6181147;28;20565;-56
2021/01/18 05:33:20;;;;;;;39.00;23.07;;;-0.40;99.30;;;;;;6181454;28;20489;-57
2021/01/18 05:36:39;;;;;;;34.70;20.80;;;-0.30;99.10;;;;;;6180943;28;20465;-57
2021/01/18 05:39:41;;;;;;;38.03;21.93;;;-0.40;99.30;;;;;;6180910;28;20965;-57
2021/01/18 05:42:44;;;;;;;35.63;22.23;;;-0.30;99.50;;;;;;6176257;28;20478;-58
2021/01/18 05:45:48;;;;;;;36.63;22.87;;;-0.40;99.60;;;;;;6181025;28;20488;-58
2021/01/18 05:48:51;;;;;;;31.70;22.10;;;-0.40;99.80;;;;;;6180875;28;20493;-58
2021/01/18 05:51:54;;;;;;;32.80;22.63;;;-0.40;99.90;;;;;;6180690;28;20485;-58
2021/01/18 05:55:17;;;;;;;33.00;23.90;;;-0.40;99.90;;;;;;6180633;28;20489;-58
2021/01/18 05:58:31;;;;;;;32.80;22.00;;;-0.50;99.90;;;;;;6180298;28;20990;-57
2021/01/18 06:01:39;;;;;;;33.60;21.83;;;-0.60;99.90;;;;;;6191458;28;20473;-57
2021/01/18 06:04:41;;;;;;;39.97;24.17;;;-0.50;99.90;;;;;;6184816;28;20473;-57
2021/01/18 06:07:43;;;;;;;34.73;24.03;;;-0.60;99.90;;;;;;6187723;28;20473;-58
2021/01/18 06:10:47;;;;;;;45.50;24.00;;;-0.60;99.90;;;;;;6197391;28;20825;-58
2021/01/18 06:13:58;;;;;;;37.07;22.63;;;-0.50;99.90;;;;;;6204125;28;20489;-57
2021/01/18 06:17:00;;;;;;;43.53;25.90;;;-0.60;99.90;;;;;;6204386;28;20512;-58
2021/01/18 06:20:04;;;;;;;36.70;23.07;;;-0.70;99.90;;;;;;6204149;28;20481;-57
2021/01/18 06:23:08;;;;;;;40.27;23.60;;;-0.70;99.90;;;;;;6203049;28;20484;-58
2021/01/18 06:26:10;;;;;;;40.70;26.00;;;-0.70;99.90;;;;;;6203776;28;20801;-58
2021/01/18 06:29:36;;;;;;;41.77;24.20;;;-0.70;99.90;;;;;;6203678;28;20477;-58
2021/01/18 06:32:38;;;;;;;51.40;27.27;;;-0.70;99.90;;;;;;6204038;28;20480;-58
2021/01/18 06:35:40;;;;;;;35.60;21.63;;;-0.70;99.90;;;;;;6203557;28;20994;-58
2021/01/18 06:38:45;;;;;;;36.67;23.83;;;-0.70;99.90;;;;;;6203879;28;20481;-58
2021/01/18 06:41:57;;;;;;;41.27;23.93;;;-0.70;99.90;;;;;;6203841;28;20485;-57
2021/01/18 06:45:00;;;;;;;37.40;22.70;;;-0.80;99.90;;;;;;6203673;28;20836;-59
2021/01/18 06:48:06;;;;;;;33.90;23.30;;;-0.70;99.90;;;;;;6201639;28;20578;-58
2021/01/18 06:51:13;;;;;;;41.63;23.37;;;-0.70;99.90;;;;;;6198144;28;20454;-58
2021/01/18 06:54:20;;;;;;;37.37;23.53;;;-0.60;99.90;;;;;;6179537;28;20548;-58
2021/01/18 06:57:36;;;;;;;35.47;22.90;;;-0.60;99.90;;;;;;6178970;28;20765;-58
2021/01/18 07:00:42;;;;;;;37.00;23.97;;;-0.50;99.90;;;;;;6179376;28;20498;-58
2021/01/18 07:03:55;;;;;;;37.77;24.93;;;-0.40;99.90;;;;;;6189595;28;20476;-58
2021/01/18 07:06:58;;;;;;;46.13;25.70;;;-0.40;99.90;;;;;;6202860;28;20806;-58
2021/01/18 07:10:03;;;;;;;39.77;25.37;;;-0.40;99.90;;;;;;6200813;28;20564;-58
2021/01/18 07:13:06;;;;;;;39.47;23.20;;;-0.40;99.90;;;;;;6200845;28;20816;-58
2021/01/18 07:16:21;;;;;;;39.23;24.10;;;-0.40;99.70;;;;;;6200730;28;20507;-58
2021/01/18 07:19:35;;;;;;;39.50;24.23;;;-0.30;99.80;;;;;;6201714;28;20484;-58
2021/01/18 07:22:56;;;;;;;39.40;25.50;;;-0.30;99.70;;;;;;6202339;28;20469;-58
2021/01/18 07:26:20;;;;;;;38.07;25.20;;;-0.30;99.90;;;;;;6202666;28;20814;-58
2021/01/18 07:29:24;;;;;;;38.57;24.70;;;-0.20;99.90;;;;;;6182755;28;20981;-58
2021/01/18 07:32:27;;;;;;;40.17;26.53;;;-0.20;99.60;;;;;;6202471;28;20597;-58
2021/01/18 07:35:30;;;;;;;44.10;26.27;;;0.00;99.90;;;;;;6202338;28;20489;-58
2021/01/18 07:38:37;;;;;;;44.47;27.53;;;0.00;99.20;;;;;;6202511;28;20839;-58
2021/01/18 07:41:39;;;;;;;36.53;26.03;;;0.00;99.20;;;;;;6201997;28;20472;-59
2021/01/18 07:44:45;;;;;;;45.80;25.37;;;0.20;99.30;;;;;;6202208;28;20480;-58
2021/01/18 07:48:07;;;;;;;45.40;27.60;;;0.20;98.70;;;;;;6202096;28;20492;-58
2021/01/18 07:51:19;;;;;;;43.37;27.00;;;0.20;98.80;;;;;;6202245;28;20462;-58
2021/01/18 07:54:32;;;;;;;42.20;26.10;;;0.20;98.80;;;;;;6201736;28;20961;-58
2021/01/18 07:57:39;;;;;;;38.77;26.23;;;0.20;98.70;;;;;;6201352;28;20984;-57
2021/01/18 08:00:42;;;;;;;42.57;27.30;;;0.30;98.60;;;;;;6201719;28;21002;-57
2021/01/18 08:03:45;;;;;;;36.20;23.87;;;0.40;98.80;;;;;;6201749;28;20472;-57
2021/01/18 08:07:03;;;;;;;42.17;26.97;;;0.30;98.30;;;;;;6202229;28;20487;-57
2021/01/18 08:10:08;;;;;;;41.83;26.57;;;0.10;98.50;;;;;;6201297;28;20531;-58
2021/01/18 08:13:34;;;;;;;40.53;25.20;;;0.10;98.90;;;;;;6197154;28;20806;-58
2021/01/18 08:16:41;;;;;;;42.73;24.83;;;0.20;98.70;;;;;;6201250;28;20474;-59
2021/01/18 08:20:09;;;;;;;40.03;26.60;;;0.20;98.50;;;;;;6201257;28;20477;-58
2021/01/18 08:23:41;;;;;;;41.97;25.33;;;0.40;98.60;;;;;;6201149;28;20465;-62
2021/01/18 08:26:58;;;;;;;40.77;24.40;;;0.50;98.30;;;;;;6200992;28;20473;-58
2021/01/18 08:30:00;;;;;;;36.47;24.20;;;0.70;98.00;;;;;;6200627;28;20469;-58
2021/01/18 08:33:05;;;;;;;39.50;24.77;;;0.70;97.30;;;;;;6200631;28;20950;-58
2021/01/18 08:36:09;;;;;;;44.40;28.07;;;0.80;97.20;;;;;;6200602;28;20489;-58
2021/01/18 08:39:12;;;;;;;40.63;25.67;;;0.90;97.20;;;;;;6200526;28;20476;-57
2021/01/18 08:42:24;;;;;;;39.13;24.10;;;1.00;96.90;;;;;;6200992;28;20453;-58
2021/01/18 08:45:29;;;;;;;40.50;27.40;;;1.10;96.80;;;;;;6200662;28;20469;-58
2021/01/18 08:48:31;;;;;;;43.50;26.30;;;1.30;96.80;;;;;;6200087;28;20939;-57
2021/01/18 08:51:47;;;;;;;44.20;25.93;;;1.40;96.30;;;;;;6200368;28;20803;-57
2021/01/18 08:54:50;;;;;;;39.60;25.33;;;1.60;96.00;;;;;;6200339;28;20812;-56
2021/01/18 08:57:53;;;;;;;44.43;25.90;;;1.90;95.70;;;;;;6191329;28;20981;-58
2021/01/18 09:00:58;;;;;;;39.10;25.97;;;1.90;94.70;;;;;;6200569;28;20790;-58
2021/01/18 09:04:04;;;;;;;41.53;26.50;;;2.10;94.80;;;;;;6200610;28;20483;-60
2021/01/18 09:07:10;;;;;;;37.53;25.17;;;2.30;94.10;;;;;;6200824;28;20481;-59
2021/01/18 09:10:14;;;;;;;42.30;27.33;;;2.70;93.90;;;;;;6199697;28;20473;-58
2021/01/18 09:13:22;;;;;;;40.77;24.20;;;3.00;93.50;;;;;;6197279;28;20984;-59
2021/01/18 09:16:24;;;;;;;38.97;26.53;;;3.20;92.30;;;;;;6200258;28;20909;-57
2021/01/18 09:19:28;;;;;;;44.30;25.73;;;3.00;92.30;;;;;;6190968;28;20473;-57
2021/01/18 09:22:35;;;;;;;39.73;27.17;;;3.00;92.40;;;;;;6184043;28;20518;-59
2021/01/18 09:25:38;;;;;;;41.43;26.40;;;3.10;92.40;;;;;;6190463;28;20483;-65
2021/01/18 09:28:41;;;;;;;43.03;27.07;;;3.20;91.90;;;;;;6200081;28;20984;-64
2021/01/18 09:31:44;;;;;;;39.90;27.83;;;3.20;91.70;;;;;;6188077;28;20592;-62
2021/01/18 09:35:06;;;;;;;55.97;37.03;;;3.20;91.50;;;;;;6175922;28;20489;-64
2021/01/18 09:38:19;;;;;;;45.60;26.97;;;3.20;91.80;;;;;;6175970;28;20512;-62
2021/01/18 09:41:24;;;;;;;44.63;28.90;;;3.20;91.60;;;;;;6175839;28;20619;-63
2021/01/18 09:44:27;;;;;;;41.80;26.90;;;3.00;91.80;;;;;;6176121;28;20528;-59
2021/01/18 09:47:32;;;;;;;46.27;27.77;;;3.00;91.80;;;;;;6186656;28;20469;-58
2021/01/18 09:50:39;;;;;;;38.90;25.00;;;3.10;91.90;;;;;;6180563;28;20619;-58
2021/01/18 09:53:43;;;;;;;40.73;25.30;;;3.20;92.10;;;;;;6193322;28;20465;-58
2021/01/18 09:56:45;;;;;;;41.67;25.87;;;3.20;91.80;;;;;;6191681;28;20480;-58
2021/01/18 09:59:50;;;;;;;39.10;27.97;;;3.40;91.50;;;;;;6189070;28;20480;-57
2021/01/18 10:02:54;;;;;;;42.83;28.30;;;3.80;91.60;;;;;;6193958;28;20476;-57
2021/01/18 10:06:07;;;;;;;43.80;26.80;;;3.70;90.80;;;;;;6204227;28;20473;-57
2021/01/18 10:09:15;;;;;;;42.90;26.90;;;3.90;90.60;;;;;;6204283;28;20471;-58
2021/01/18 10:12:24;;;;;;;43.47;27.50;;;4.00;90.00;;;;;;6203946;28;20445;-58
2021/01/18 10:15:28;;;;;;;40.47;28.93;;;4.00;90.20;;;;;;6204108;28;20469;-58
2021/01/18 10:18:34;;;;;;;37.43;26.90;;;3.90;90.00;;;;;;6204251;28;20519;-58
2021/01/18 10:21:37;;;;;;;38.93;25.77;;;4.00;90.40;;;;;;6203988;28;20807;-58
2021/01/18 10:24:40;;;;;;;40.23;25.77;;;4.30;89.10;;;;;;6204112;28;20469;-54
2021/01/18 10:27:50;;;;;;;35.63;25.23;;;4.70;87.70;;;;;;6192282;28;20492;-57
2021/01/18 10:30:52;;;;;;;42.87;27.80;;;4.90;87.80;;;;;;6179967;28;20481;-57
2021/01/18 10:34:16;;;;;;;41.70;27.40;;;5.00;85.80;;;;;;6191998;28;20507;-57
2021/01/18 10:37:19;;;;;;;37.93;26.60;;;5.00;86.10;;;;;;6201759;28;20484;-56
2021/01/18 10:40:23;;;;;;;36.70;26.90;;;4.90;85.00;;;;;;6179175;28;21090;-57
2021/01/18 10:43:28;;;;;;;43.37;27.80;;;5.10;85.60;;;;;;6179382;28;20511;-56
2021/01/18 10:46:30;;;;;;;46.17;30.77;;;5.30;84.40;;;;;;6179466;28;20474;-56
2021/01/18 10:49:38;;;;;;;39.87;27.20;;;5.60;83.40;;;;;;6179124;28;20482;-57
2021/01/18 10:52:41;;;;;;;38.20;27.77;;;5.70;81.70;;;;;;6184470;28;20545;-56
2021/01/18 10:55:45;;;;;;;39.23;27.60;;;5.70;81.50;;;;;;6186431;28;20482;-57
2021/01/18 10:58:56;;;;;;;40.50;28.30;;;5.70;81.60;;;;;;6188416;28;20477;-56
2021/01/18 11:02:05;;;;;;;44.40;28.13;;;5.90;81.40;;;;;;6183347;28;20509;-57
2021/01/18 11:05:09;;;;;;;41.37;27.97;;;6.00;80.10;;;;;;6180961;28;20470;-57
2021/01/18 11:08:12;;;;;;;40.97;28.10;;;6.10;80.40;;;;;;6202798;28;20492;-56
2021/01/18 11:11:19;;;;;;;40.30;27.47;;;6.20;80.30;;;;;;6199743;28;20806;-64
2021/01/18 11:14:25;;;;;;;36.13;26.63;;;6.40;79.30;;;;;;6195310;28;20621;-58
2021/01/18 11:17:28;;;;;;;38.53;26.77;;;6.40;78.10;;;;;;6189594;28;20461;-58
2021/01/18 11:20:32;;;;;;;37.37;26.67;;;6.30;78.00;;;;;;6187763;28;20559;-57
2021/01/18 11:23:34;;;;;;;37.27;26.57;;;6.20;78.00;;;;;;6201739;28;20481;-57
2021/01/18 11:26:37;;;;;;;39.77;26.97;;;6.10;78.00;;;;;;6202125;28;20469;-56
2021/01/18 11:29:40;;;;;;;38.47;25.90;;;5.90;77.70;;;;;;6201545;28;20481;-56
2021/01/18 11:32:43;;;;;;;34.37;25.27;;;6.00;78.80;;;;;;6198777;28;20470;-55
2021/01/18 11:35:48;;;;;;;38.20;26.10;;;6.20;78.90;;;;;;6187723;28;20918;-55
2021/01/18 11:38:50;;;;;;;39.63;25.07;;;6.40;77.30;;;;;;6177304;28;21049;-55
2021/01/18 11:41:54;;;;;;;37.50;27.37;;;6.40;76.80;;;;;;6175649;28;20474;-55
2021/01/18 11:44:57;;;;;;;39.20;28.37;;;6.40;76.50;;;;;;6175908;28;20644;-55
2021/01/18 11:48:02;;;;;;;39.30;27.50;;;6.60;76.50;;;;;;6175714;28;20616;-56
2021/01/18 11:51:05;;;;;;;34.27;25.27;;;6.80;75.70;;;;;;6175648;28;20521;-56
2021/01/18 11:54:08;;;;;;;38.67;26.73;;;7.20;75.20;;;;;;6176191;28;20466;-63
2021/01/18 11:57:11;;;;;;;36.27;25.07;;;7.60;74.00;;;;;;6200808;28;20491;-58
2021/01/18 12:00:17;;;;;;;40.77;28.30;;;7.70;71.30;;;;;;6200906;28;20460;-55
2021/01/18 12:03:19;;;;;;;45.03;29.37;;;7.50;70.90;;;;;;6201269;28;20569;-56
2021/01/18 12:06:21;;;;;;;43.37;26.90;;;7.00;72.40;;;;;;6201004;28;20881;-56
2021/01/18 12:09:24;;;;;;;41.30;27.50;;;7.10;72.40;;;;;;6195991;28;20479;-56
2021/01/18 12:12:27;;;;;;;36.73;26.87;;;7.30;72.30;;;;;;6196781;28;20449;-56
2021/01/18 12:15:30;;;;;;;42.77;27.30;;;7.10;71.30;;;;;;6200861;28;20484;-57
2021/01/18 12:18:32;;;;;;;38.13;26.60;;;7.20;72.20;;;;;;6200958;28;20481;-57
2021/01/18 12:21:42;;;;;;;41.37;28.20;;;7.50;70.70;;;;;;6199778;28;20960;-56
2021/01/18 12:24:44;;;;;;;32.90;25.40;;;8.40;70.10;;;;;;6200814;28;20464;-56
2021/01/18 12:27:51;;;;;;;38.20;26.60;;;9.40;67.10;;;;;;6200582;28;20465;-56
2021/01/18 12:30:54;;;;;;;36.50;26.50;;;10.60;60.70;;;;;;6186784;28;20485;-56
2021/01/18 12:33:57;;;;;;;34.73;26.23;;;11.60;57.80;;;;;;6185816;28;20476;-56
2021/01/18 12:36:59;;;;;;;36.67;27.97;;;12.10;53.70;;;;;;6200228;28;20470;-57
2021/01/18 12:40:03;;;;;;;35.60;25.97;;;11.90;53.40;;;;;;6200255;28;20476;-56
2021/01/18 12:43:07;;;;;;;40.80;29.87;;;12.00;52.60;;;;;;6200821;28;20483;-56
2021/01/18 12:46:09;;;;;;;38.77;27.47;;;11.60;52.10;;;;;;6197821;28;20796;-56
2021/01/18 12:49:12;;;;;;;34.83;26.10;;;11.30;53.40;;;;;;6196261;28;20814;-57
2021/01/18 12:52:14;;;;;;;38.10;28.80;;;12.30;52.00;;;;;;6181806;28;20466;-56
2021/01/18 12:55:17;;;;;;;36.00;27.43;;;13.60;48.90;;;;;;6194531;28;20813;-55
2021/01/18 12:58:20;;;;;;;44.47;28.50;;;12.70;47.70;;;;;;6186243;28;20488;-56
2021/01/18 13:01:29;;;;;;;35.27;26.87;;;11.40;48.90;;;;;;6195394;28;20614;-56
2021/01/18 13:04:32;;;;;;;33.93;27.40;;;9.70;53.60;;;;;;6190982;28;20469;-55
2021/01/18 13:07:35;;;;;;;39.33;29.00;;;8.20;56.10;;;;;;6200434;28;20487;-56
2021/01/18 13:10:37;;;;;;;42.90;28.37;;;7.60;58.70;;;;;;6200073;28;20473;-55
2021/01/18 13:13:42;;;;;;;42.10;27.90;;;7.00;60.60;;;;;;6182855;28;20478;-56
2021/01/18 13:16:48;;;;;;;37.50;28.33;;;6.50;63.00;;;;;;6191835;28;20472;-56
2021/01/18 13:19:50;;;;;;;33.83;26.40;;;6.10;64.60;;;;;;6189883;28;20467;-56
2021/01/18 13:22:54;;;;;;;39.50;27.67;;;6.00;66.10;;;;;;6196892;28;20473;-56
2021/01/18 13:25:57;;;;;;;44.50;27.70;;;5.60;67.10;;;;;;6187096;28;20465;-55
2021/01/18 13:29:01;;;;;;;47.20;30.50;;;5.50;68.30;;;;;;6194435;28;20562;-55
2021/01/18 13:32:04;;;;;;;44.37;30.73;;;5.50;69.60;;;;;;6195643;28;20805;-55
2021/01/18 13:35:08;;;;;;;40.80;26.40;;;5.30;70.90;;;;;;6184369;28;20486;-54
2021/01/18 13:38:10;;;;;;;42.13;28.87;;;5.20;71.10;;;;;;6188138;28;20949;-55
2021/01/18 13:41:14;;;;;;;42.97;27.13;;;5.00;72.10;;;;;;6195981;28;20474;-55
2021/01/18 13:44:17;;;;;;;39.60;28.10;;;4.80;73.10;;;;;;6192675;28;20472;-54
2021/01/18 13:47:20;;;;;;;43.67;28.50;;;5.00;73.50;;;;;;6180251;28;20469;-55
2021/01/18 13:50:22;;;;;;;40.33;26.10;;;5.10;73.60;;;;;;6180701;28;20480;-56
2021/01/18 13:53:25;;;;;;;39.23;27.50;;;5.00;73.50;;;;;;6188831;28;20601;-57
2021/01/18 13:56:27;;;;;;;39.33;26.47;;;5.20;74.30;;;;;;6180491;28;20506;-55
2021/01/18 13:59:32;;;;;;;45.00;28.93;;;5.50;73.70;;;;;;6180173;28;20482;-55
2021/01/18 14:02:34;;;;;;;53.90;29.10;;;5.40;73.50;;;;;;6180544;28;20477;-55
2021/01/18 14:05:40;;;;;;;48.20;29.50;;;5.20;73.30;;;;;;6180472;28;20480;-56
2021/01/18 14:08:43;;;;;;;38.77;28.57;;;4.90;75.00;;;;;;6179883;28;20486;-56
2021/01/18 14:11:47;;;;;;;42.47;30.60;;;5.20;75.00;;;;;;6179672;28;20623;-55
2021/01/18 14:14:50;;;;;;;40.77;27.77;;;5.40;74.60;;;;;;6203215;28;20464;-55
2021/01/18 14:17:53;;;;;;;45.47;30.20;;;5.40;73.90;;;;;;6199288;28;20485;-55
2021/01/18 14:20:55;;;;;;;37.30;26.73;;;5.40;73.60;;;;;;6203837;28;20979;-56
2021/01/18 14:24:02;;;;;;;43.53;27.30;;;5.20;74.30;;;;;;6203579;28;20515;-56
2021/01/18 14:27:04;;;;;;;42.23;28.63;;;5.10;74.30;;;;;;6204075;28;20582;-56
2021/01/18 14:30:09;;;;;;;41.93;25.77;;;4.80;75.00;;;;;;6203430;28;20809;-54
2021/01/18 14:33:12;;;;;;;42.17;27.47;;;4.60;76.70;;;;;;6203642;28;20461;-55
2021/01/18 14:36:15;;;;;;;43.50;28.43;;;4.50;76.40;;;;;;6213809;28;20967;-55
2021/01/18 14:39:17;;;;;;;38.67;28.17;;;4.50;77.00;;;;;;6227736;28;20464;-54
2021/01/18 14:42:19;;;;;;;48.33;26.03;;;4.10;77.90;;;;;;6227429;28;20840;-54
2021/01/18 14:45:24;;;;;;;40.83;28.30;;;4.00;79.20;;;;;;6226534;28;20734;-57
2021/01/18 14:48:30;;;;;;;37.37;26.23;;;3.90;79.80;;;;;;6227357;28;20919;-57
2021/01/18 14:51:33;;;;;;;43.87;28.80;;;3.80;80.00;;;;;;6227312;28;20476;-55
2021/01/18 14:54:38;;;;;;;39.30;27.73;;;3.70;80.20;;;;;;6227210;28;20924;-57
2021/01/18 14:57:45;;;;;;;43.83;28.90;;;3.60;81.00;;;;;;6227108;28;20574;-56
2021/01/18 15:00:48;;;;;;;43.03;27.33;;;3.30;81.70;;;;;;6227538;28;20947;-56
2021/01/18 15:03:52;;;;;;;45.20;28.50;;;3.20;82.80;;;;;;6227272;28;20506;-56
2021/01/18 15:06:57;;;;;;;41.50;28.70;;;3.20;83.40;;;;;;6227174;28;20476;-55
2021/01/18 15:10:00;;;;;;;41.13;25.27;;;3.10;83.80;;;;;;6225190;28;20482;-56
2021/01/18 15:13:02;;;;;;;42.00;26.43;;;2.90;84.00;;;;;;6208149;28;21016;-57
2021/01/18 15:16:08;;;;;;;47.27;29.77;;;2.80;84.90;;;;;;6226564;28;20475;-56
2021/01/18 15:19:11;;;;;;;46.73;27.00;;;2.80;85.60;;;;;;6227509;28;20480;-56
2021/01/18 15:22:13;;;;;;;45.87;27.17;;;2.70;86.00;;;;;;6217934;28;20479;-57
2021/01/18 15:25:16;;;;;;;44.00;28.63;;;2.60;86.50;;;;;;6226532;28;20824;-56
2021/01/18 15:28:18;;;;;;;36.47;26.63;;;2.60;87.10;;;;;;6226525;28;20491;-56
2021/01/18 15:31:22;;;;;;;39.93;26.77;;;2.50;87.40;;;;;;6226869;28;20472;-56
2021/01/18 15:34:25;;;;;;;54.33;28.47;;;2.50;88.30;;;;;;6226930;28;20526;-56
2021/01/18 15:37:27;;;;;;;41.73;27.63;;;2.40;88.50;;;;;;6226188;28;20483;-56
2021/01/18 15:40:30;;;;;;;47.03;28.57;;;2.40;89.00;;;;;;6226437;28;20480;-57
2021/01/18 15:43:33;;;;;;;46.33;26.87;;;2.40;89.40;;;;;;6226624;28;20483;-56
2021/01/18 15:46:36;;;;;;;45.37;28.70;;;2.30;89.80;;;;;;6226566;28;20479;-57
2021/01/18 15:49:39;;;;;;;39.03;26.23;;;2.30;90.00;;;;;;6226811;28;20583;-57